Indianapolis, Indiana
Traffic Map
Current Weather Conditions
Indianapolis, Indiana
Broken Clouds Thunderstorm
Broken Clouds
77°
Feels Like: 79°
Wind Chill: 77° Ceiling: 4000
Heat Index: 79° Visibility: 10mi
Dew Point: 67° Wind: 6mph
Humidity: 71% Direction: 220° (SW)
Pressure: 30in Gusts: 0mph
Raw Report DataKIND 260209Z 22005KT 10SM TS BKN040CB BKN100 BKN250 25/19 A3000 RMK AO2 LTG DSNT W TSE04B08 OCNL LTGICCC VC W TS W MOV NE T02500194 $
Traffic Incident Summary
Active as of:
Severity:
Category:
InformationThere was an issue retrieving the traffic information for this location. Please try a different location or try again shortly.
Advertisements
Track Severe Weather on mobile